Time;durP1;ratioP1;P1;durP2;ratioP2;P2;SDS_P1;SDS_P2;PMS_P1;PMS_P2;Temp;Humidity;BMP_temperature;BMP_pressure;BME280_temperature;BME280_humidity;BME280_pressure;Samples;Min_cycle;Max_cycle;Signal;HPM_P1;HPM_P2
2023/04/06 00:02:24;;;;;;;17.00;12.50;;;-2.00;99.90;;;;;;5093263;28;20192;-73
2023/04/06 00:04:51;;;;;;;19.30;12.20;;;-2.10;99.90;;;;;;5093076;28;20273;-73
2023/04/06 00:07:18;;;;;;;20.07;13.73;;;-2.20;99.90;;;;;;5093174;28;20226;-73
2023/04/06 00:09:45;;;;;;;18.37;12.90;;;-2.20;99.90;;;;;;5093434;28;20227;-73
2023/04/06 00:12:11;;;;;;;19.10;12.83;;;-2.20;99.90;;;;;;5092801;28;20750;-73
2023/04/06 00:14:38;;;;;;;19.43;12.97;;;-2.00;99.90;;;;;;5093013;28;20231;-73
2023/04/06 00:17:04;;;;;;;19.70;13.63;;;-1.90;99.90;;;;;;5093047;28;20196;-73
2023/04/06 00:19:31;;;;;;;20.70;12.57;;;-2.00;99.90;;;;;;5093160;28;20222;-72
2023/04/06 00:21:59;;;;;;;16.00;12.17;;;-2.10;99.90;;;;;;5092994;28;20200;-73
2023/04/06 00:24:26;;;;;;;14.83;11.97;;;-2.20;99.90;;;;;;5092737;28;20215;-73
2023/04/06 00:26:52;;;;;;;18.33;10.83;;;-2.30;99.90;;;;;;5092869;28;20253;-72
2023/04/06 00:29:19;;;;;;;14.33;11.23;;;-2.40;99.90;;;;;;5092917;28;20235;-73
2023/04/06 00:31:46;;;;;;;16.03;12.00;;;-2.30;99.90;;;;;;5092646;28;20701;-73
2023/04/06 00:34:14;;;;;;;15.97;12.03;;;-2.50;99.90;;;;;;5092637;28;20277;-73
2023/04/06 00:36:41;;;;;;;17.37;12.37;;;-2.50;99.90;;;;;;5092612;28;20204;-73
2023/04/06 00:39:09;;;;;;;16.20;11.83;;;-2.40;99.90;;;;;;5092702;28;20221;-73
2023/04/06 00:41:35;;;;;;;19.33;12.10;;;-2.40;99.90;;;;;;5092356;28;20664;-73
2023/04/06 00:44:02;;;;;;;15.93;11.37;;;-2.50;99.90;;;;;;5092945;28;20200;-74
2023/04/06 00:46:29;;;;;;;16.83;11.37;;;-2.50;99.90;;;;;;5092937;28;20196;-73
2023/04/06 00:48:56;;;;;;;16.50;11.97;;;-2.70;99.90;;;;;;5092655;28;20654;-73
2023/04/06 00:51:23;;;;;;;15.70;11.93;;;-2.60;99.90;;;;;;5092618;28;20257;-73
2023/04/06 00:53:50;;;;;;;21.90;14.77;;;-2.50;99.90;;;;;;5092438;28;20196;-73
2023/04/06 00:56:18;;;;;;;24.50;15.27;;;-2.30;99.90;;;;;;5092415;28;20251;-73
2023/04/06 00:58:44;;;;;;;23.27;16.33;;;-2.40;99.90;;;;;;5092704;28;20197;-73
2023/04/06 01:01:11;;;;;;;25.30;16.77;;;-2.30;99.90;;;;;;5093872;28;20235;-73
2023/04/06 01:03:38;;;;;;;26.53;16.97;;;-2.40;99.90;;;;;;5096670;28;20239;-73
2023/04/06 01:06:04;;;;;;;24.20;17.63;;;-2.50;99.90;;;;;;5096508;28;20253;-73
2023/04/06 01:08:31;;;;;;;23.90;16.60;;;-2.70;99.90;;;;;;5096444;28;20808;-73
2023/04/06 01:11:00;;;;;;;22.37;15.80;;;-2.80;99.90;;;;;;5096467;28;20196;-73
2023/04/06 01:13:28;;;;;;;21.43;16.83;;;-2.90;99.90;;;;;;5096429;28;20204;-73
2023/04/06 01:15:55;;;;;;;30.57;17.27;;;-2.90;99.90;;;;;;5096447;28;20255;-73
2023/04/06 01:18:26;;;;;;;21.60;15.77;;;-2.90;99.90;;;;;;5096427;28;20235;-73
2023/04/06 01:20:53;;;;;;;21.57;16.13;;;-2.90;99.90;;;;;;5096406;28;20258;-72
2023/04/06 01:23:21;;;;;;;21.40;15.93;;;-2.80;99.90;;;;;;5096356;28;20192;-73
2023/04/06 01:25:47;;;;;;;28.70;16.63;;;-2.60;99.90;;;;;;5096436;28;20255;-73
2023/04/06 01:28:14;;;;;;;23.47;15.93;;;-2.50;99.90;;;;;;5096231;28;20227;-73
2023/04/06 01:30:41;;;;;;;21.47;15.47;;;-2.40;99.90;;;;;;5096275;28;20196;-73
2023/04/06 01:33:08;;;;;;;25.33;16.83;;;-2.50;99.90;;;;;;5096096;28;20250;-73
2023/04/06 01:35:35;;;;;;;26.03;16.90;;;-2.60;99.90;;;;;;5095751;28;20317;-74
2023/04/06 01:38:01;;;;;;;24.53;17.63;;;-2.70;99.90;;;;;;5095916;28;20643;-73
2023/04/06 01:40:29;;;;;;;21.07;16.13;;;-2.70;99.90;;;;;;5096060;28;20231;-73
2023/04/06 01:42:56;;;;;;;23.10;16.70;;;-2.70;99.90;;;;;;5095812;28;20697;-73
2023/04/06 01:45:23;;;;;;;26.60;16.67;;;-2.80;99.90;;;;;;5095822;28;20201;-74
2023/04/06 01:47:49;;;;;;;22.97;16.13;;;-2.80;99.90;;;;;;5095839;28;20231;-72
2023/04/06 01:50:16;;;;;;;24.37;17.73;;;-2.80;99.90;;;;;;5095733;28;20200;-73
2023/04/06 01:52:43;;;;;;;25.20;17.20;;;-2.90;99.90;;;;;;5095973;28;20691;-73
2023/04/06 01:55:09;;;;;;;24.47;17.10;;;-2.90;99.90;;;;;;5095723;28;20255;-73
2023/04/06 01:57:37;;;;;;;22.70;17.10;;;-2.90;99.90;;;;;;5095551;28;20660;-73
2023/04/06 02:00:05;;;;;;;28.07;18.00;;;-2.90;99.90;;;;;;5095619;28;20280;-73
2023/04/06 02:02:32;;;;;;;28.67;17.67;;;-2.90;99.90;;;;;;5095434;28;20667;-73
2023/04/06 02:04:58;;;;;;;25.53;17.23;;;-2.90;99.90;;;;;;5095397;28;20232;-72
2023/04/06 02:07:25;;;;;;;23.90;17.63;;;-2.90;99.90;;;;;;5095332;28;20705;-73
2023/04/06 02:09:55;;;;;;;29.87;18.10;;;-2.90;99.90;;;;;;5095389;28;20224;-73
2023/04/06 02:12:23;;;;;;;25.20;17.90;;;-2.90;99.90;;;;;;5094845;28;20206;-73
2023/04/06 02:14:51;;;;;;;28.07;17.80;;;-2.90;99.90;;;;;;5095185;28;20257;-73
2023/04/06 02:17:18;;;;;;;25.53;18.60;;;-3.00;99.90;;;;;;5095233;28;20247;-73
2023/04/06 02:19:44;;;;;;;31.67;17.80;;;-3.00;99.90;;;;;;5095117;28;20599;-73
2023/04/06 02:22:11;;;;;;;26.07;18.20;;;-3.00;99.90;;;;;;5095215;28;20250;-73
2023/04/06 02:24:37;;;;;;;26.53;18.17;;;-3.00;99.90;;;;;;5095025;28;20228;-73
2023/04/06 02:27:04;;;;;;;28.00;18.50;;;-3.10;99.90;;;;;;5095108;28;20196;-73
2023/04/06 02:29:31;;;;;;;24.63;17.77;;;-3.00;99.90;;;;;;5095120;28;20232;-73
2023/04/06 02:31:59;;;;;;;26.33;17.67;;;-3.00;99.90;;;;;;5094932;28;20228;-73
2023/04/06 02:34:26;;;;;;;28.23;19.10;;;-3.00;99.90;;;;;;5094684;28;20226;-73
2023/04/06 02:36:52;;;;;;;31.90;17.43;;;-3.00;99.90;;;;;;5094818;28;20255;-73
2023/04/06 02:39:19;;;;;;;26.43;18.40;;;-3.10;99.90;;;;;;5094876;28;20655;-73
2023/04/06 02:41:45;;;;;;;30.10;18.13;;;-3.10;99.90;;;;;;5094748;28;20651;-73
2023/04/06 02:44:12;;;;;;;25.67;17.67;;;-3.10;99.90;;;;;;5094554;28;20255;-73
2023/04/06 02:46:38;;;;;;;27.87;18.10;;;-3.10;99.90;;;;;;5094620;28;20228;-73
2023/04/06 02:49:06;;;;;;;30.43;17.90;;;-3.20;99.90;;;;;;5094736;28;20224;-74
2023/04/06 02:51:33;;;;;;;27.50;18.43;;;-3.10;99.90;;;;;;5094457;28;20226;-73
2023/04/06 02:54:00;;;;;;;29.43;18.50;;;-3.10;99.90;;;;;;5094565;28;20226;-74
2023/04/06 02:56:26;;;;;;;27.57;18.33;;;-3.20;99.90;;;;;;5094394;28;20234;-73
2023/04/06 02:58:53;;;;;;;29.47;18.73;;;-3.20;99.90;;;;;;5094326;28;20229;-73
2023/04/06 03:01:20;;;;;;;29.10;18.83;;;-3.20;99.90;;;;;;5094479;28;20229;-73
2023/04/06 03:03:46;;;;;;;27.10;17.63;;;-3.30;99.90;;;;;;5094480;28;20196;-74
2023/04/06 03:06:14;;;;;;;27.40;17.63;;;-3.30;99.90;;;;;;5094369;28;20235;-73
2023/04/06 03:08:41;;;;;;;26.03;17.00;;;-3.20;99.90;;;;;;5094518;28;20643;-73
2023/04/06 03:11:07;;;;;;;27.70;18.03;;;-3.30;99.90;;;;;;5093972;28;20232;-73
2023/04/06 03:13:34;;;;;;;26.67;17.43;;;-3.30;99.90;;;;;;5094002;28;20720;-73
2023/04/06 03:16:01;;;;;;;24.83;17.20;;;-3.40;99.90;;;;;;5093937;28;20267;-73
2023/04/06 03:18:27;;;;;;;29.30;18.27;;;-3.40;99.90;;;;;;5094066;28;20199;-74
2023/04/06 03:20:54;;;;;;;27.50;17.47;;;-3.50;99.90;;;;;;5093761;28;20273;-74
2023/04/06 03:23:22;;;;;;;25.83;17.50;;;-3.40;99.90;;;;;;5093096;28;20231;-74
2023/04/06 03:25:49;;;;;;;25.60;18.13;;;-3.40;99.90;;;;;;5093801;28;20200;-73
2023/04/06 03:28:15;;;;;;;32.33;17.93;;;-3.50;99.90;;;;;;5093821;28;20200;-74
2023/04/06 03:30:42;;;;;;;28.63;17.27;;;-3.50;99.90;;;;;;5093736;28;20212;-74
2023/04/06 03:33:09;;;;;;;24.50;17.27;;;-3.50;99.90;;;;;;5093747;28;20711;-73
2023/04/06 03:35:36;;;;;;;27.97;17.40;;;-3.60;99.90;;;;;;5093356;28;20571;-73
2023/04/06 03:38:03;;;;;;;25.60;17.10;;;-3.50;99.90;;;;;;5093544;28;20743;-74
2023/04/06 03:40:31;;;;;;;27.37;16.13;;;-3.50;99.90;;;;;;5093495;28;20238;-73
2023/04/06 03:42:57;;;;;;;24.73;17.50;;;-3.50;99.90;;;;;;5093507;28;20690;-73
2023/04/06 03:45:24;;;;;;;26.03;16.80;;;-3.50;99.90;;;;;;5093729;28;20230;-73
2023/04/06 03:47:51;;;;;;;24.80;16.73;;;-3.50;99.90;;;;;;5093621;28;20196;-74
2023/04/06 03:50:17;;;;;;;26.20;18.33;;;-3.50;99.90;;;;;;5093546;28;20238;-74
2023/04/06 03:52:44;;;;;;;28.00;18.80;;;-3.50;99.90;;;;;;5093354;28;20232;-73
2023/04/06 03:55:10;;;;;;;30.23;19.70;;;-3.50;99.90;;;;;;5093239;28;20707;-74
2023/04/06 03:57:38;;;;;;;28.60;19.87;;;-3.60;99.90;;;;;;5093415;28;20305;-73
2023/04/06 04:00:06;;;;;;;31.20;19.77;;;-3.60;99.90;;;;;;5093333;28;20198;-74
2023/04/06 04:02:33;;;;;;;28.20;19.40;;;-3.70;99.90;;;;;;5093279;28;20227;-74
2023/04/06 04:05:00;;;;;;;29.97;19.50;;;-3.60;99.90;;;;;;5093201;28;20237;-74
2023/04/06 04:07:26;;;;;;;32.43;19.10;;;-3.60;99.90;;;;;;5093017;28;20618;-74
2023/04/06 04:09:53;;;;;;;31.13;19.20;;;-3.60;99.90;;;;;;5092966;28;20203;-73
2023/04/06 04:12:19;;;;;;;32.53;19.07;;;-3.60;99.90;;;;;;5093051;28;20674;-74
2023/04/06 04:14:47;;;;;;;27.33;18.60;;;-3.60;99.90;;;;;;5093200;28;20227;-74
2023/04/06 04:17:14;;;;;;;29.90;18.87;;;-3.70;99.90;;;;;;5092515;28;20269;-74
2023/04/06 04:19:41;;;;;;;29.33;19.03;;;-3.80;99.90;;;;;;5093030;28;20208;-73
2023/04/06 04:22:07;;;;;;;30.53;18.87;;;-3.80;99.90;;;;;;5092815;28;20603;-73
2023/04/06 04:24:34;;;;;;;28.47;18.80;;;-3.70;99.90;;;;;;5092803;28;20197;-74
2023/04/06 04:27:01;;;;;;;27.77;18.00;;;-3.70;99.90;;;;;;5092928;28;20201;-74
2023/04/06 04:29:28;;;;;;;26.67;17.60;;;-3.70;99.90;;;;;;5093068;28;20197;-74
2023/04/06 04:31:56;;;;;;;24.77;17.37;;;-3.80;99.90;;;;;;5092822;28;20239;-73
2023/04/06 04:34:24;;;;;;;24.70;17.53;;;-3.90;99.90;;;;;;5092672;28;20699;-74
2023/04/06 04:36:51;;;;;;;27.73;18.20;;;-3.90;99.90;;;;;;5092500;28;20226;-74
2023/04/06 04:39:18;;;;;;;26.00;17.37;;;-3.80;99.90;;;;;;5092899;28;20224;-74
2023/04/06 04:41:45;;;;;;;25.13;17.37;;;-3.90;99.90;;;;;;5092805;28;20225;-73
2023/04/06 04:44:11;;;;;;;26.63;16.47;;;-4.00;99.90;;;;;;5092747;28;20235;-74
2023/04/06 04:46:38;;;;;;;26.70;17.20;;;-4.00;99.90;;;;;;5092640;28;20206;-74
2023/04/06 04:49:06;;;;;;;24.60;17.10;;;-4.00;99.90;;;;;;5092544;28;20657;-74
2023/04/06 04:51:33;;;;;;;27.83;17.90;;;-3.80;99.90;;;;;;5092405;28;20199;-73
2023/04/06 04:54:00;;;;;;;26.70;19.07;;;-3.80;99.90;;;;;;5092842;28;20198;-74
2023/04/06 04:56:27;;;;;;;30.83;18.20;;;-3.80;99.90;;;;;;5092588;28;20261;-74
2023/04/06 04:58:54;;;;;;;28.37;17.70;;;-3.70;99.90;;;;;;5092671;28;20203;-73
2023/04/06 05:01:20;;;;;;;26.50;18.43;;;-3.90;99.90;;;;;;5092155;28;20284;-73
2023/04/06 05:03:47;;;;;;;30.37;18.77;;;-3.90;99.90;;;;;;5092421;28;20678;-73
2023/04/06 05:06:15;;;;;;;33.50;18.17;;;-3.80;99.90;;;;;;5092327;28;20198;-73
2023/04/06 05:08:42;;;;;;;27.60;18.43;;;-3.70;99.90;;;;;;5092520;28;20197;-73
2023/04/06 05:11:09;;;;;;;27.93;17.50;;;-3.70;99.90;;;;;;5092515;28;20226;-73
2023/04/06 05:13:35;;;;;;;26.50;18.10;;;-3.70;99.90;;;;;;5092440;28;20230;-73
2023/04/06 05:16:02;;;;;;;28.57;19.07;;;-3.60;99.90;;;;;;5092296;28;20641;-73
2023/04/06 05:18:29;;;;;;;28.23;19.23;;;-3.60;99.90;;;;;;5091929;28;20626;-73
2023/04/06 05:20:56;;;;;;;33.57;21.10;;;-3.50;99.90;;;;;;5092442;28;20199;-73
2023/04/06 05:23:24;;;;;;;34.10;20.00;;;-3.40;99.90;;;;;;5092486;28;20241;-73
2023/04/06 05:25:51;;;;;;;31.33;19.47;;;-3.30;99.90;;;;;;5092363;28;20204;-73
2023/04/06 05:28:18;;;;;;;29.73;19.10;;;-3.20;99.90;;;;;;5092157;28;20696;-74
2023/04/06 05:30:46;;;;;;;27.40;18.87;;;-3.20;99.90;;;;;;5092049;28;20206;-74
2023/04/06 05:33:12;;;;;;;27.53;18.47;;;-3.10;99.90;;;;;;5092123;28;20199;-74
2023/04/06 05:35:39;;;;;;;29.60;18.20;;;-3.00;99.90;;;;;;5091906;28;20301;-74
2023/04/06 05:38:08;;;;;;;32.37;18.43;;;-2.90;99.90;;;;;;5092203;28;20341;-74
2023/04/06 05:40:36;;;;;;;26.73;18.67;;;-2.90;99.90;;;;;;5092156;28;20235;-74
2023/04/06 05:43:03;;;;;;;28.73;17.70;;;-2.80;99.90;;;;;;5092259;28;20192;-73
2023/04/06 05:45:29;;;;;;;26.37;18.73;;;-2.70;99.90;;;;;;5092188;28;20668;-73
2023/04/06 05:47:56;;;;;;;27.37;18.23;;;-2.60;99.90;;;;;;5094086;28;20593;-73
2023/04/06 05:50:23;;;;;;;29.60;17.20;;;-2.60;99.90;;;;;;5095717;28;20224;-74
2023/04/06 05:52:49;;;;;;;28.27;17.63;;;-2.50;99.90;;;;;;5095573;28;20606;-73
2023/04/06 05:55:16;;;;;;;23.90;17.60;;;-2.40;99.90;;;;;;5095651;28;20228;-74
2023/04/06 05:57:44;;;;;;;23.60;16.67;;;-2.30;99.90;;;;;;5095743;28;20262;-74
2023/04/06 06:00:12;;;;;;;28.30;18.03;;;-2.20;99.90;;;;;;5095408;28;20231;-73
2023/04/06 06:02:39;;;;;;;28.47;18.93;;;-2.10;99.90;;;;;;5095741;28;20200;-74
2023/04/06 06:05:06;;;;;;;30.47;19.17;;;-2.00;99.90;;;;;;5096349;28;20223;-74
2023/04/06 06:07:32;;;;;;;28.93;19.03;;;-1.90;99.90;;;;;;5095551;28;20250;-73
2023/04/06 06:09:59;;;;;;;27.20;18.63;;;-1.80;99.90;;;;;;5095442;28;20262;-73
2023/04/06 06:12:26;;;;;;;26.23;19.00;;;-1.70;99.90;;;;;;5095516;28;20299;-74
2023/04/06 06:14:55;;;;;;;24.63;18.23;;;-1.60;99.90;;;;;;5094910;28;20594;-74
2023/04/06 06:17:21;;;;;;;27.73;19.03;;;-1.50;99.90;;;;;;5095089;28;20231;-74
2023/04/06 06:19:48;;;;;;;25.27;18.37;;;-1.30;99.90;;;;;;5095257;28;20201;-73
2023/04/06 06:22:15;;;;;;;28.27;18.07;;;-1.20;99.90;;;;;;5095260;28;20202;-74
2023/04/06 06:24:41;;;;;;;26.00;17.10;;;-1.10;99.90;;;;;;5095447;28;20288;-74
2023/04/06 06:27:08;;;;;;;20.73;14.70;;;-1.00;99.90;;;;;;5095749;28;20192;-73
2023/04/06 06:29:35;;;;;;;22.07;15.67;;;-0.90;99.90;;;;;;5094957;28;20540;-73
2023/04/06 06:32:03;;;;;;;19.90;14.67;;;-0.80;99.90;;;;;;5095428;28;20246;-73
2023/04/06 06:34:29;;;;;;;23.43;14.93;;;-0.70;99.90;;;;;;5094932;28;20641;-73
2023/04/06 06:36:56;;;;;;;24.33;15.87;;;-0.60;99.90;;;;;;5095268;28;20232;-73
2023/04/06 06:39:23;;;;;;;21.17;15.00;;;-0.40;99.90;;;;;;5095120;28;20192;-73
2023/04/06 06:41:49;;;;;;;23.03;14.43;;;-0.30;99.90;;;;;;5094589;28;20211;-73
2023/04/06 06:44:17;;;;;;;21.23;14.70;;;-0.20;99.90;;;;;;5095173;28;20204;-73
2023/04/06 06:46:43;;;;;;;18.30;13.50;;;-0.10;99.90;;;;;;5095475;28;20203;-71
2023/04/06 06:49:12;;;;;;;26.73;17.57;;;0.00;99.90;;;;;;5095172;28;20481;-73
2023/04/06 06:51:38;;;;;;;24.90;17.50;;;0.10;99.90;;;;;;5094760;28;20678;-73
2023/04/06 06:54:05;;;;;;;19.90;14.00;;;0.30;99.90;;;;;;5095134;28;20204;-73
2023/04/06 06:56:32;;;;;;;17.20;13.50;;;0.50;99.90;;;;;;5094272;28;20220;-72
2023/04/06 06:58:58;;;;;;;19.77;14.27;;;0.70;99.90;;;;;;5094724;28;20208;-72
2023/04/06 07:01:25;;;;;;;18.37;13.63;;;0.80;99.90;;;;;;5094835;28;20277;-72
2023/04/06 07:03:51;;;;;;;19.50;13.97;;;1.00;99.90;;;;;;5094704;28;20231;-72
2023/04/06 07:06:19;;;;;;;18.30;12.93;;;1.10;99.90;;;;;;5094465;28;20228;-73
2023/04/06 07:08:46;;;;;;;17.80;13.00;;;1.30;99.90;;;;;;5094310;28;20245;-73
2023/04/06 07:11:12;;;;;;;17.30;13.40;;;1.40;99.90;;;;;;5094600;28;20192;-75
2023/04/06 07:13:39;;;;;;;17.97;13.97;;;1.60;99.90;;;;;;5094086;28;20228;-76
2023/04/06 07:16:06;;;;;;;20.83;13.60;;;1.80;99.90;;;;;;5094372;28;20250;-73
2023/04/06 07:18:32;;;;;;;16.80;12.53;;;2.00;99.90;;;;;;5094170;28;20196;-72
2023/04/06 07:20:59;;;;;;;20.73;12.67;;;2.10;99.90;;;;;;5093653;28;20196;-71
2023/04/06 07:23:27;;;;;;;16.07;11.60;;;2.30;99.90;;;;;;5093934;28;20672;-72
2023/04/06 07:25:54;;;;;;;18.43;12.60;;;2.50;99.90;;;;;;5094123;28;20235;-74
2023/04/06 07:28:22;;;;;;;15.07;12.27;;;2.70;99.90;;;;;;5094014;28;20195;-74
2023/04/06 07:30:48;;;;;;;17.07;11.87;;;2.90;99.90;;;;;;5094422;28;20207;-73
2023/04/06 07:33:15;;;;;;;14.13;11.50;;;3.10;99.90;;;;;;5094027;28;20665;-79
2023/04/06 07:35:41;;;;;;;14.43;10.33;;;3.50;99.90;;;;;;5094706;28;20227;-77
2023/04/06 07:38:08;;;;;;;12.57;10.07;;;3.80;99.90;;;;;;5094283;28;20230;-72
2023/04/06 07:40:36;;;;;;;12.70;10.60;;;4.00;99.90;;;;;;5072458;28;20232;-72
2023/04/06 07:43:03;;;;;;;11.70;10.27;;;4.20;99.90;;;;;;5079899;28;20227;-72
2023/04/06 07:45:29;;;;;;;14.23;11.20;;;4.30;99.90;;;;;;5093288;28;20246;-72
2023/04/06 07:47:56;;;;;;;14.90;10.57;;;4.50;99.90;;;;;;5093448;28;20545;-72
2023/04/06 07:50:22;;;;;;;14.17;10.20;;;4.60;99.90;;;;;;5093152;28;20281;-73
2023/04/06 07:52:49;;;;;;;14.33;10.67;;;4.80;99.90;;;;;;5092523;28;20227;-72
2023/04/06 07:55:16;;;;;;;15.03;10.53;;;5.00;99.90;;;;;;5093145;28;20235;-72
2023/04/06 07:57:44;;;;;;;23.97;12.73;;;5.20;99.90;;;;;;5092820;28;20212;-72
2023/04/06 08:00:11;;;;;;;16.27;9.97;;;5.50;99.90;;;;;;5093198;28;20228;-72
2023/04/06 08:02:38;;;;;;;14.33;10.00;;;5.40;99.90;;;;;;5092759;28;20235;-72
2023/04/06 08:05:05;;;;;;;19.90;14.47;;;5.50;99.90;;;;;;5092885;28;20228;-71
2023/04/06 08:07:32;;;;;;;15.70;10.03;;;5.80;99.90;;;;;;5093700;28;20204;-72
2023/04/06 08:09:59;;;;;;;16.60;9.20;;;6.00;99.90;;;;;;5094561;28;20208;-73
2023/04/06 08:12:26;;;;;;;11.87;9.33;;;6.30;99.90;;;;;;5092411;28;20416;-71
2023/04/06 08:14:54;;;;;;;11.60;9.97;;;6.40;96.30;;;;;;5092861;28;20220;-72
2023/04/06 08:17:20;;;;;;;15.17;10.13;;;6.50;95.30;;;;;;5092752;28;20277;-72
2023/04/06 08:19:47;;;;;;;11.77;9.77;;;6.70;95.50;;;;;;5092834;28;20219;-72
2023/04/06 08:22:13;;;;;;;13.17;9.80;;;6.80;93.60;;;;;;5093055;28;20223;-72
2023/04/06 08:24:40;;;;;;;11.93;9.23;;;7.00;92.40;;;;;;5092674;28;20648;-72
2023/04/06 08:27:07;;;;;;;12.47;9.23;;;7.10;91.60;;;;;;5093142;28;20226;-71
2023/04/06 08:29:34;;;;;;;13.27;9.67;;;7.30;90.70;;;;;;5092755;28;20196;-72
2023/04/06 08:32:04;;;;;;;13.63;9.40;;;7.40;88.10;;;;;;5092915;28;20532;-71
2023/04/06 08:34:32;;;;;;;12.73;10.17;;;7.30;84.80;;;;;;5092222;28;20229;-71
2023/04/06 08:36:58;;;;;;;12.33;10.03;;;7.50;84.80;;;;;;5092976;28;20698;-72
2023/04/06 08:39:27;;;;;;;13.83;10.27;;;7.50;83.10;;;;;;5092483;28;20260;-72
2023/04/06 08:41:56;;;;;;;11.23;9.53;;;7.80;83.70;;;;;;5092902;28;20227;-72
2023/04/06 08:44:23;;;;;;;13.57;10.30;;;8.30;81.70;;;;;;5092599;28;20200;-72
2023/04/06 08:46:50;;;;;;;11.20;9.77;;;8.20;77.50;;;;;;5092680;28;20238;-72
2023/04/06 08:49:19;;;;;;;12.00;10.03;;;8.20;80.20;;;;;;5092809;28;20196;-72
2023/04/06 08:51:45;;;;;;;10.60;9.50;;;8.20;78.90;;;;;;5092779;28;20203;-72
2023/04/06 08:54:12;;;;;;;12.50;10.27;;;8.40;79.00;;;;;;5092811;28;20232;-72
2023/04/06 08:56:40;;;;;;;12.50;10.17;;;8.50;77.60;;;;;;5092552;28;20223;-72
2023/04/06 08:59:07;;;;;;;14.03;10.10;;;8.50;75.10;;;;;;5092522;28;20620;-71
2023/04/06 09:01:39;;;;;;;13.33;10.03;;;8.80;75.40;;;;;;5092332;28;20239;-71
2023/04/06 09:04:10;;;;;;;11.67;9.70;;;9.10;75.30;;;;;;5092366;28;20681;-71
2023/04/06 09:06:40;;;;;;;12.90;10.33;;;8.90;70.00;;;;;;5092640;28;20196;-71
2023/04/06 09:09:07;;;;;;;11.63;10.03;;;9.00;72.20;;;;;;5091982;28;20724;-72
2023/04/06 09:11:44;;;;;;;11.70;10.37;;;9.40;69.70;;;;;;5092643;28;20204;-71
2023/04/06 09:14:11;;;;;;;12.00;9.60;;;9.30;63.50;;;;;;5092640;28;20305;-72
2023/04/06 09:16:41;;;;;;;12.63;9.77;;;9.50;60.10;;;;;;5092362;28;20228;-72
2023/04/06 09:19:07;;;;;;;13.57;10.87;;;9.30;56.90;;;;;;5092493;28;20197;-72
2023/04/06 09:21:34;;;;;;;14.37;11.67;;;9.30;54.80;;;;;;5092498;28;20196;-72
2023/04/06 09:24:03;;;;;;;13.70;9.87;;;9.20;53.90;;;;;;5096134;28;20792;-72
2023/04/06 09:26:30;;;;;;;10.93;9.57;;;9.10;54.00;;;;;;5096086;28;20674;-71
2023/04/06 09:28:59;;;;;;;12.60;10.40;;;9.20;51.60;;;;;;5096181;28;20304;-71
2023/04/06 09:31:28;;;;;;;11.70;9.77;;;9.50;52.30;;;;;;5096228;28;20216;-73
2023/04/06 09:33:55;;;;;;;11.37;9.67;;;10.10;55.30;;;;;;5095620;28;20313;-72
2023/04/06 09:36:30;;;;;;;12.27;9.83;;;10.90;53.60;;;;;;5095970;28;20644;-72
2023/04/06 09:38:59;;;;;;;13.33;10.07;;;11.40;51.30;;;;;;5095959;28;20690;-72
2023/04/06 09:41:29;;;;;;;12.97;9.83;;;11.80;50.40;;;;;;5096105;28;20208;-72
2023/04/06 09:44:03;;;;;;;14.60;10.23;;;12.10;47.80;;;;;;5095753;28;20196;-72
2023/04/06 09:46:32;;;;;;;12.57;9.70;;;12.30;42.80;;;;;;5095681;28;20200;-72
2023/04/06 09:49:00;;;;;;;12.20;9.80;;;11.80;41.70;;;;;;5095640;28;20261;-73
2023/04/06 09:51:31;;;;;;;11.03;9.77;;;12.20;41.20;;;;;;5095273;28;20721;-73
2023/04/06 09:54:01;;;;;;;11.90;9.77;;;12.60;41.30;;;;;;5095642;28;20250;-73
2023/04/06 09:56:32;;;;;;;15.27;9.75;;;12.90;40.70;;;;;;5095701;28;20283;-73
2023/04/06 09:59:03;;;;;;;10.98;9.88;;;13.30;39.30;;;;;;5095249;28;20255;-73
2023/04/06 10:01:32;;;;;;;11.90;9.93;;;12.70;34.70;;;;;;5095294;28;20207;-73
2023/04/06 10:04:11;;;;;;;11.55;10.20;;;11.40;34.30;;;;;;5095279;28;20203;-70
2023/04/06 10:06:39;;;;;;;11.77;10.57;;;10.80;36.30;;;;;;5095478;28;20232;-71
2023/04/06 10:09:08;;;;;;;11.57;9.50;;;11.30;38.00;;;;;;5095361;28;20232;-71
2023/04/06 10:11:36;;;;;;;12.93;10.20;;;11.80;37.30;;;;;;5094910;28;20197;-72
2023/04/06 10:14:02;;;;;;;11.82;10.35;;;11.90;36.00;;;;;;5095164;28;20228;-72
2023/04/06 10:16:30;;;;;;;11.80;10.25;;;11.30;35.20;;;;;;5095126;28;20223;-72
2023/04/06 10:19:02;;;;;;;10.40;9.50;;;11.50;35.50;;;;;;5094981;28;20254;-72
2023/04/06 10:21:31;;;;;;;11.65;10.13;;;12.50;35.70;;;;;;5095402;28;20193;-72
2023/04/06 10:24:00;;;;;;;12.32;11.07;;;12.60;33.90;;;;;;5095393;28;20590;-72
2023/04/06 10:26:27;;;;;;;11.35;10.18;;;12.80;33.40;;;;;;5095075;28;20200;-72
2023/04/06 10:28:55;;;;;;;11.20;10.18;;;13.00;32.30;;;;;;5095117;28;20231;-72
2023/04/06 10:31:26;;;;;;;10.88;9.68;;;13.60;31.90;;;;;;5094999;28;20226;-73
2023/04/06 10:33:56;;;;;;;10.68;9.52;;;14.10;32.90;;;;;;5094145;28;20700;-72
2023/04/06 10:36:25;;;;;;;10.52;9.40;;;14.90;31.20;;;;;;5094915;28;20203;-73
2023/04/06 10:38:57;;;;;;;11.35;10.35;;;15.90;31.10;;;;;;5094675;28;20246;-74
2023/04/06 10:41:23;;;;;;;9.38;8.57;;;16.70;28.90;;;;;;5094537;28;20200;-74
2023/04/06 10:43:58;;;;;;;10.70;9.70;;;17.10;27.20;;;;;;5094459;28;20250;-73
2023/04/06 10:46:29;;;;;;;10.18;9.27;;;16.80;24.70;;;;;;5094857;28;20248;-73
2023/04/06 10:48:56;;;;;;;11.35;10.25;;;15.30;25.70;;;;;;5094590;28;20236;-72
2023/04/06 10:51:26;;;;;;;12.98;11.07;;;13.40;25.50;;;;;;5094428;28;20297;-72
2023/04/06 10:53:54;;;;;;;11.57;10.45;;;13.10;26.70;;;;;;5094473;28;20271;-72
2023/04/06 10:56:23;;;;;;;11.65;10.32;;;13.80;27.30;;;;;;5094502;28;20231;-73
2023/04/06 10:58:52;;;;;;;9.80;8.98;;;14.90;24.90;;;;;;5094379;28;20220;-73
2023/04/06 11:01:22;;;;;;;10.70;9.70;;;13.90;24.90;;;;;;5093455;28;20207;-72
2023/04/06 11:03:50;;;;;;;10.52;9.43;;;13.40;25.30;;;;;;5094332;28;20614;-72
2023/04/06 11:06:21;;;;;;;10.23;9.23;;;13.30;25.40;;;;;;5094051;28;20258;-72
2023/04/06 11:08:48;;;;;;;13.52;9.63;;;12.80;25.30;;;;;;5094149;28;20594;-72
2023/04/06 11:11:18;;;;;;;10.88;9.82;;;12.80;26.00;;;;;;5094230;28;20203;-72
2023/04/06 11:13:46;;;;;;;10.38;9.38;;;12.80;25.40;;;;;;5094091;28;20670;-72
2023/04/06 11:16:14;;;;;;;10.65;9.65;;;13.30;26.10;;;;;;5093832;28;20648;-72
2023/04/06 11:18:49;;;;;;;10.88;9.88;;;14.70;26.00;;;;;;5093720;28;20285;-72
2023/04/06 11:21:16;;;;;;;9.90;8.90;;;16.30;24.80;;;;;;5093992;28;20207;-73
2023/04/06 11:23:43;;;;;;;11.10;10.05;;;16.20;23.70;;;;;;5094199;28;20235;-73
2023/04/06 11:26:12;;;;;;;10.82;9.63;;;15.70;23.80;;;;;;5094189;28;20211;-73
2023/04/06 11:28:39;;;;;;;10.93;9.82;;;15.60;23.10;;;;;;5093863;28;20256;-73
2023/04/06 11:31:06;;;;;;;10.43;9.40;;;15.40;23.80;;;;;;5093419;28;20648;-73
2023/04/06 11:33:37;;;;;;;10.82;9.32;;;14.70;23.00;;;;;;5093656;28;20235;-73
2023/04/06 11:36:06;;;;;;;10.10;9.18;;;14.70;22.30;;;;;;5093678;28;20282;-73
2023/04/06 11:38:33;;;;;;;11.15;10.05;;;16.30;22.30;;;;;;5093450;28;20220;-73
2023/04/06 11:40:59;;;;;;;10.57;9.63;;;17.10;21.20;;;;;;5093348;28;20258;-73
2023/04/06 11:43:30;;;;;;;10.85;9.82;;;17.60;20.40;;;;;;5093400;28;20292;-73
2023/04/06 11:46:05;;;;;;;11.63;10.43;;;17.70;20.20;;;;;;5092710;28;20223;-73
2023/04/06 11:48:32;;;;;;;10.27;9.27;;;17.80;19.00;;;;;;5093073;28;20200;-74
2023/04/06 11:51:00;;;;;;;9.82;8.98;;;18.70;20.70;;;;;;5093385;28;20203;-74
2023/04/06 11:53:29;;;;;;;8.77;7.88;;;20.30;18.40;;;;;;5093301;28;20320;-73
2023/04/06 11:55:55;;;;;;;13.10;8.63;;;21.80;18.00;;;;;;5093533;28;20208;-74
2023/04/06 11:58:22;;;;;;;8.10;7.45;;;23.00;16.00;;;;;;5093099;28;20217;-74
2023/04/06 12:00:49;;;;;;;8.63;7.72;;;23.60;14.50;;;;;;5093125;28;20226;-74
2023/04/06 12:03:15;;;;;;;8.63;7.82;;;23.40;13.50;;;;;;5093187;28;20643;-74
2023/04/06 12:05:42;;;;;;;14.43;12.90;;;23.70;12.70;;;;;;5093006;28;20196;-74
2023/04/06 12:08:09;;;;;;;8.98;8.27;;;23.20;12.80;;;;;;5093049;28;20239;-74
2023/04/06 12:10:36;;;;;;;8.73;8.02;;;23.80;12.40;;;;;;5093108;28;20227;-73
2023/04/06 12:13:03;;;;;;;12.32;11.02;;;24.50;11.60;;;;;;5093018;28;20251;-72
2023/04/06 12:15:30;;;;;;;15.82;14.23;;;24.80;11.50;;;;;;5093231;28;20666;-73
2023/04/06 12:17:56;;;;;;;11.63;10.63;;;24.10;11.00;;;;;;5093035;28;20199;-72
2023/04/06 12:20:23;;;;;;;11.55;10.55;;;22.50;10.40;;;;;;5093102;28;20200;-72
2023/04/06 12:22:49;;;;;;;11.00;9.95;;;20.20;11.10;;;;;;5092730;28;20671;-73
2023/04/06 12:25:16;;;;;;;9.75;8.85;;;20.00;12.00;;;;;;5092930;28;20237;-72
2023/04/06 12:27:45;;;;;;;12.20;11.05;;;20.10;11.60;;;;;;5092970;28;20235;-72
2023/04/06 12:30:12;;;;;;;20.23;16.58;;;17.40;12.00;;;;;;5093038;28;20220;-72
2023/04/06 12:32:39;;;;;;;12.90;11.02;;;17.30;13.50;;;;;;5092733;28;20721;-72